createdAt,value
2017-03-04T00:04:09.529Z,990.64
2017-03-04T00:09:06.889Z,990.63
2017-03-04T00:14:03.593Z,990.67
2017-03-04T00:19:00.716Z,990.69
2017-03-04T00:23:57.166Z,990.65
2017-03-04T00:28:53.767Z,990.60
2017-03-04T00:33:50.476Z,990.49
2017-03-04T00:38:47.754Z,990.40
2017-03-04T00:43:45.009Z,990.34
2017-03-04T00:48:41.976Z,990.36
2017-03-04T00:53:38.687Z,990.23
2017-03-04T00:58:35.474Z,990.24
2017-03-04T01:03:32.088Z,990.14
2017-03-04T01:08:28.697Z,990.05
2017-03-04T01:13:25.368Z,990.06
2017-03-04T01:18:22.229Z,989.95
2017-03-04T01:23:19.369Z,989.89
2017-03-04T01:28:15.903Z,989.86
2017-03-04T01:33:12.348Z,989.86
2017-03-04T01:38:08.969Z,989.90
2017-03-04T01:43:06.070Z,989.95
2017-03-04T01:48:02.638Z,989.86
2017-03-04T01:53:00.450Z,989.88
2017-03-04T01:57:56.940Z,989.85
2017-03-04T02:02:53.901Z,989.85
2017-03-04T02:07:50.387Z,989.84
2017-03-04T02:12:46.652Z,989.74
2017-03-04T02:17:43.285Z,989.74
2017-03-04T02:22:40.264Z,989.66
2017-03-04T02:27:36.484Z,989.52
2017-03-04T02:32:32.572Z,989.52
2017-03-04T02:37:29.161Z,989.39
2017-03-04T02:42:25.427Z,989.49
2017-03-04T02:47:21.991Z,989.42
2017-03-04T02:52:18.834Z,989.36
2017-03-04T02:57:15.610Z,989.27
2017-03-04T03:02:13.108Z,989.20
2017-03-04T03:07:09.819Z,989.18
2017-03-04T03:12:06.679Z,989.20
2017-03-04T03:17:03.216Z,989.30
2017-03-04T03:22:00.907Z,989.30
2017-03-04T03:26:57.542Z,989.36
2017-03-04T03:31:55.066Z,989.18
2017-03-04T03:36:51.790Z,989.29
2017-03-04T03:41:49.355Z,989.26
2017-03-04T03:46:45.094Z,989.11
2017-03-04T03:51:41.674Z,989.13
2017-03-04T03:56:38.314Z,989.05
2017-03-04T04:01:35.061Z,988.97
2017-03-04T04:06:31.475Z,988.87
2017-03-04T04:11:29.275Z,988.87
2017-03-04T04:16:25.763Z,988.93
2017-03-04T04:21:22.393Z,988.86
2017-03-04T04:26:19.437Z,988.78
2017-03-04T04:31:16.009Z,988.75
2017-03-04T04:36:12.787Z,988.73
2017-03-04T04:41:10.339Z,988.82
2017-03-04T04:46:06.787Z,988.81
2017-03-04T04:51:03.481Z,988.79
2017-03-04T04:56:00.237Z,988.80
2017-03-04T05:00:57.200Z,988.68
2017-03-04T05:05:53.576Z,988.64
2017-03-04T05:10:50.356Z,988.52
2017-03-04T05:15:47.243Z,988.51
2017-03-04T05:20:43.979Z,988.43
2017-03-04T05:25:40.739Z,988.39
2017-03-04T05:30:37.578Z,988.40
2017-03-04T05:35:34.419Z,988.27
2017-03-04T05:40:30.988Z,988.29
2017-03-04T05:45:27.417Z,988.25
2017-03-04T05:50:24.020Z,988.23
2017-03-04T05:55:21.020Z,988.25
2017-03-04T06:00:18.441Z,988.27
2017-03-04T06:05:14.948Z,988.27
2017-03-04T06:10:11.386Z,988.24
2017-03-04T06:15:08.017Z,988.27
2017-03-04T06:20:05.653Z,988.23
2017-03-04T06:25:02.329Z,988.32
2017-03-04T06:29:58.981Z,988.27
2017-03-04T06:34:55.755Z,988.34
2017-03-04T06:39:52.430Z,988.37
2017-03-04T06:44:49.312Z,988.44
2017-03-04T06:49:46.397Z,988.39
2017-03-04T06:54:43.069Z,988.39
2017-03-04T06:59:39.416Z,988.44
2017-03-04T07:04:36.479Z,988.38
2017-03-04T07:09:33.501Z,988.39
2017-03-04T07:14:30.300Z,988.35
2017-03-04T07:19:27.037Z,988.37
2017-03-04T07:24:24.120Z,988.31
2017-03-04T07:29:20.878Z,988.19
2017-03-04T07:34:18.994Z,988.32
2017-03-04T07:39:15.647Z,988.32
2017-03-04T07:44:12.262Z,988.32
2017-03-04T07:49:09.045Z,988.28
2017-03-04T07:54:06.397Z,988.17
2017-03-04T07:59:03.565Z,988.16
2017-03-04T08:04:00.627Z,988.07
2017-03-04T08:08:57.691Z,988.08
2017-03-04T08:13:54.891Z,988.12
2017-03-04T08:18:52.108Z,988.02
2017-03-04T08:23:50.011Z,988.06
2017-03-04T08:28:47.167Z,987.91
2017-03-04T08:33:44.752Z,987.97
2017-03-04T08:38:41.699Z,988.13
2017-03-04T08:43:39.187Z,988.05
2017-03-04T08:48:35.633Z,988.05
2017-03-04T08:53:32.726Z,987.93
2017-03-04T08:58:29.935Z,987.97
2017-03-04T09:03:26.500Z,987.91
2017-03-04T09:08:23.560Z,988.00
2017-03-04T09:13:20.211Z,987.96
2017-03-04T09:18:18.585Z,987.98
2017-03-04T09:23:14.770Z,987.89
2017-03-04T09:28:11.876Z,987.87
2017-03-04T09:33:08.796Z,987.93
2017-03-04T09:38:06.070Z,987.93
2017-03-04T09:43:03.334Z,987.82
2017-03-04T09:48:00.397Z,987.73
2017-03-04T09:52:57.517Z,987.67
2017-03-04T09:57:54.898Z,987.66
2017-03-04T10:02:51.845Z,987.53
2017-03-04T10:07:48.687Z,987.43
2017-03-04T10:12:45.613Z,987.41
2017-03-04T10:17:42.470Z,987.42
2017-03-04T10:22:39.333Z,987.43
2017-03-04T10:27:36.314Z,987.38
2017-03-04T10:32:33.135Z,987.35
2017-03-04T10:37:30.476Z,987.36
2017-03-04T10:42:27.532Z,987.40
2017-03-04T10:47:24.124Z,987.40
2017-03-04T10:52:20.559Z,987.35
2017-03-04T10:57:16.796Z,987.40
2017-03-04T11:02:13.662Z,987.36
2017-03-04T11:07:10.813Z,987.43
2017-03-04T11:12:07.402Z,987.40
2017-03-04T11:17:04.243Z,987.37
2017-03-04T11:22:01.203Z,987.21
2017-03-04T11:26:57.605Z,987.07
2017-03-04T11:31:54.263Z,986.97
2017-03-04T11:36:50.800Z,986.92
2017-03-04T11:41:47.327Z,986.79
2017-03-04T11:46:45.151Z,986.72
2017-03-04T11:51:41.657Z,986.71
2017-03-04T11:56:41.366Z,986.80
2017-03-04T12:01:37.906Z,986.83
2017-03-04T12:06:35.079Z,986.64
2017-03-04T12:11:31.915Z,986.67
2017-03-04T12:16:28.625Z,986.79
2017-03-04T12:21:26.672Z,986.95
2017-03-04T12:26:23.683Z,986.75
2017-03-04T12:31:21.214Z,986.69
2017-03-04T12:36:18.708Z,986.60
2017-03-04T12:41:15.361Z,986.57
2017-03-04T12:46:12.503Z,986.37
2017-03-04T12:51:09.023Z,986.27
2017-03-04T12:56:06.935Z,986.17
2017-03-04T13:01:04.807Z,985.96
2017-03-04T13:06:01.755Z,986.03
2017-03-04T13:10:58.072Z,985.96
2017-03-04T13:15:54.668Z,985.90
2017-03-04T13:20:51.203Z,985.86
2017-03-04T13:25:47.912Z,985.94
2017-03-04T13:30:44.664Z,985.83
2017-03-04T13:35:42.736Z,985.85
2017-03-04T13:40:39.034Z,985.79
2017-03-04T13:45:35.722Z,985.66
2017-03-04T13:50:32.656Z,985.60
2017-03-04T13:55:30.439Z,985.70
2017-03-04T14:00:27.277Z,985.73
2017-03-04T14:05:25.062Z,985.59
2017-03-04T14:10:21.415Z,985.64
2017-03-04T14:15:19.667Z,985.61
2017-03-04T14:20:16.172Z,985.66
2017-03-04T14:25:12.963Z,985.84
2017-03-04T14:30:09.439Z,985.76
2017-03-04T14:35:05.925Z,985.90
2017-03-04T14:40:02.607Z,985.84
2017-03-04T14:44:59.272Z,985.74
2017-03-04T14:49:56.369Z,985.78
2017-03-04T14:54:52.622Z,985.91
2017-03-04T14:59:49.237Z,985.93
2017-03-04T15:04:45.289Z,985.95
2017-03-04T15:09:41.763Z,985.98
2017-03-04T15:14:39.602Z,986.00
2017-03-04T15:19:35.689Z,985.82
2017-03-04T15:24:31.917Z,985.82
2017-03-04T15:29:28.314Z,985.76
2017-03-04T15:34:24.616Z,985.86
2017-03-04T15:39:21.195Z,985.77
2017-03-04T15:44:17.911Z,985.75
2017-03-04T15:49:15.496Z,985.68
2017-03-04T15:54:11.620Z,985.61
2017-03-04T15:59:09.268Z,985.62
2017-03-04T16:04:05.613Z,985.56
2017-03-04T16:09:01.894Z,985.50
2017-03-04T16:13:59.330Z,985.33
2017-03-04T16:18:56.147Z,985.28
2017-03-04T16:23:53.885Z,985.29
2017-03-04T16:28:50.258Z,985.36
2017-03-04T16:33:47.206Z,985.31
2017-03-04T16:38:43.653Z,985.27
2017-03-04T16:43:40.630Z,985.22
2017-03-04T16:48:37.357Z,985.27
2017-03-04T16:53:34.244Z,985.29
2017-03-04T16:58:30.711Z,985.27
2017-03-04T17:03:27.438Z,985.34
2017-03-04T17:08:26.728Z,985.33
2017-03-04T17:13:24.087Z,985.23
2017-03-04T17:18:20.281Z,985.29
2017-03-04T17:23:17.540Z,985.29
2017-03-04T17:28:15.292Z,985.28
2017-03-04T17:33:12.427Z,985.32
2017-03-04T17:38:08.911Z,985.48
2017-03-04T17:43:05.367Z,985.48
2017-03-04T17:48:02.129Z,985.51
2017-03-04T17:52:59.297Z,985.50
2017-03-04T17:57:56.151Z,985.48
2017-03-04T18:02:52.705Z,985.58
2017-03-04T18:07:49.335Z,985.53
2017-03-04T18:12:46.238Z,985.70
2017-03-04T18:17:44.222Z,985.54
2017-03-04T18:22:40.649Z,985.48
2017-03-04T18:27:37.413Z,985.54
2017-03-04T18:32:35.450Z,985.66
2017-03-04T18:37:32.470Z,985.70
2017-03-04T18:42:29.057Z,985.56
2017-03-04T18:47:25.768Z,985.57
2017-03-04T18:52:22.881Z,985.52
2017-03-04T18:57:19.647Z,985.41
2017-03-04T19:02:16.955Z,985.32
2017-03-04T19:07:14.151Z,985.24
2017-03-04T19:12:10.692Z,985.12
2017-03-04T19:17:08.190Z,984.99
2017-03-04T19:22:05.238Z,984.97
2017-03-04T19:27:01.975Z,984.90
2017-03-04T19:31:58.825Z,985.00
2017-03-04T19:36:58.291Z,984.89
2017-03-04T19:41:54.917Z,984.82
2017-03-04T19:46:52.282Z,984.73
2017-03-04T19:51:49.104Z,984.56
2017-03-04T19:56:45.763Z,984.57
2017-03-04T20:01:42.844Z,984.68
2017-03-04T20:06:40.079Z,984.71
2017-03-04T20:11:36.560Z,984.77
2017-03-04T20:16:33.305Z,984.85
2017-03-04T20:21:32.219Z,984.96
2017-03-04T20:26:31.744Z,985.61
2017-03-04T20:31:27.993Z,985.84
2017-03-04T20:36:24.426Z,986.05
2017-03-04T20:41:21.016Z,986.32
2017-03-04T20:46:17.368Z,986.37
2017-03-04T20:51:13.970Z,986.43
2017-03-04T20:56:09.951Z,986.50
2017-03-04T21:01:06.465Z,986.31
2017-03-04T21:06:02.937Z,986.27
2017-03-04T21:10:59.010Z,986.32
2017-03-04T21:15:55.849Z,986.15
2017-03-04T21:20:52.048Z,986.30
2017-03-04T21:25:49.485Z,986.34
2017-03-04T21:30:45.846Z,986.36
2017-03-04T21:35:42.461Z,986.63
2017-03-04T21:40:38.783Z,986.78
2017-03-04T21:45:35.309Z,986.79
2017-03-04T21:50:31.970Z,986.77
2017-03-04T21:55:28.258Z,986.77
2017-03-04T22:00:24.810Z,987.01
2017-03-04T22:05:22.500Z,987.01
2017-03-04T22:10:18.871Z,987.10
2017-03-04T22:15:15.765Z,987.11
2017-03-04T22:20:12.889Z,987.05
2017-03-04T22:25:10.787Z,987.10
2017-03-04T22:30:06.788Z,987.25
2017-03-04T22:35:03.303Z,987.28
2017-03-04T22:39:59.724Z,987.21
2017-03-04T22:44:56.808Z,987.20
2017-03-04T22:49:53.373Z,987.39
2017-03-04T22:54:50.004Z,987.49
2017-03-04T22:59:46.184Z,987.54
2017-03-04T23:04:42.925Z,987.60
2017-03-04T23:09:39.397Z,987.61
2017-03-04T23:14:35.501Z,987.53
2017-03-04T23:19:32.424Z,987.46
2017-03-04T23:24:29.375Z,987.47
2017-03-04T23:29:25.801Z,987.49
2017-03-04T23:34:22.105Z,987.49
2017-03-04T23:39:18.622Z,987.65
2017-03-04T23:44:15.051Z,987.70
2017-03-04T23:49:11.586Z,987.74
2017-03-04T23:54:07.997Z,987.82
2017-03-04T23:59:04.647Z,987.78
